Time;durP1;ratioP1;P1;durP2;ratioP2;P2;SDS_P1;SDS_P2;PMS_P1;PMS_P2;Temp;Humidity;BMP_temperature;BMP_pressure;BME280_temperature;BME280_humidity;BME280_pressure;Samples;Min_cycle;Max_cycle;Signal;HPM_P1;HPM_P2
2021/07/26 00:00:49;;;;;;;;;0.00;0.00;;;;;20.09;67.30;100643.13;6150660;23;45922;-89
2021/07/26 00:03:14;;;;;;;;;0.00;0.00;;;;;20.01;67.32;100629.31;6150844;23;45291;-89
2021/07/26 00:05:40;;;;;;;;;0.00;0.00;;;;;19.86;67.75;100606.88;6150700;23;47252;-88
2021/07/26 00:08:05;;;;;;;;;0.25;0.00;;;;;20.09;67.41;100645.78;6154117;23;45293;-89
2021/07/26 00:10:32;;;;;;;;;0.00;0.00;;;;;20.08;67.56;100640.53;6151187;23;45253;-88
2021/07/26 00:12:57;;;;;;;;;0.00;0.00;;;;;19.84;67.18;100609.56;6151157;23;45386;-86
2021/07/26 00:15:25;;;;;;;;;0.00;0.00;;;;;20.09;67.31;100632.56;6150125;23;46556;-89
2021/07/26 00:17:51;;;;;;;;;0.00;0.00;;;;;20.09;67.29;100637.00;6151621;23;45236;-89
2021/07/26 00:20:16;;;;;;;;;0.00;0.00;;;;;19.94;67.27;100615.41;6151647;23;52987;-90
2021/07/26 00:22:43;;;;;;;;;0.00;0.00;;;;;19.98;67.41;100624.09;6152889;23;45159;-90
2021/07/26 00:25:09;;;;;;;;;0.00;0.00;;;;;20.05;67.18;100638.88;6149634;23;47272;-89
2021/07/26 00:27:35;;;;;;;;;0.00;0.00;;;;;20.04;66.65;100636.28;6150583;23;45433;-89
2021/07/26 00:30:01;;;;;;;;;0.00;0.00;;;;;19.99;66.59;100637.25;6150702;23;45295;-89
2021/07/26 00:32:29;;;;;;;;;0.25;0.25;;;;;19.84;66.84;100617.47;6154397;23;45311;-90
2021/07/26 00:34:55;;;;;;;;;0.00;0.00;;;;;19.78;66.88;100617.66;6150320;23;45291;-89
2021/07/26 00:37:20;;;;;;;;;0.00;0.00;;;;;19.67;66.84;100604.84;6149566;23;45238;-89
2021/07/26 00:39:46;;;;;;;;;1.00;0.00;;;;;19.85;66.62;100639.50;6149320;23;45323;-89
2021/07/26 00:42:11;;;;;;;;;0.00;0.00;;;;;19.74;66.92;100642.47;6149822;23;45544;-89
2021/07/26 00:44:37;;;;;;;;;0.00;0.00;;;;;19.70;66.61;100641.69;6149890;23;45987;-87
2021/07/26 00:47:03;;;;;;;;;0.25;0.25;;;;;19.44;67.28;100605.53;6150104;23;45336;-89
2021/07/26 00:49:29;;;;;;;;;0.00;0.00;;;;;19.47;67.50;100613.34;6150040;23;45576;-89
2021/07/26 00:51:59;;;;;;;;;0.00;0.00;;;;;19.65;67.22;100640.97;6150633;23;45269;-89
2021/07/26 00:54:27;;;;;;;;;0.00;0.00;;;;;19.57;67.17;100635.06;6150794;23;45852;-89
2021/07/26 00:56:55;;;;;;;;;0.00;0.00;;;;;19.49;67.38;100622.09;6154016;23;45394;-88
2021/07/26 00:59:20;;;;;;;;;0.25;0.00;;;;;19.51;67.58;100620.28;6150286;23;45309;-89
2021/07/26 01:01:46;;;;;;;;;0.50;0.00;;;;;19.47;67.22;100614.22;6148943;23;45244;-89
2021/07/26 01:04:12;;;;;;;;;1.00;0.00;;;;;19.59;67.73;100627.94;6149597;23;45299;-88
2021/07/26 01:06:39;;;;;;;;;1.00;0.00;;;;;19.53;67.59;100610.53;6149554;23;45225;-87
2021/07/26 01:09:04;;;;;;;;;0.00;0.00;;;;;19.66;67.62;100632.13;6149404;23;45280;-90
2021/07/26 01:11:30;;;;;;;;;0.00;0.00;;;;;19.65;67.65;100633.03;6149952;23;45154;-90
2021/07/26 01:13:55;;;;;;;;;0.00;0.00;;;;;19.56;67.61;100617.47;6149922;23;45443;-90
2021/07/26 01:16:23;;;;;;;;;0.00;0.00;;;;;19.53;67.84;100612.28;6148842;23;45240;-89
2021/07/26 01:18:49;;;;;;;;;0.50;0.00;;;;;19.57;68.30;100629.78;6149445;23;45421;-89
2021/07/26 01:21:16;;;;;;;;;0.25;0.25;;;;;19.59;67.73;100639.38;6150632;23;45316;-89
2021/07/26 01:23:43;;;;;;;;;0.00;0.00;;;;;19.56;67.17;100631.56;6155141;23;47111;-85
2021/07/26 01:26:11;;;;;;;;;0.25;0.25;;;;;19.44;67.37;100622.22;6150309;23;45332;-90
2021/07/26 01:28:42;;;;;;;;;0.75;0.00;;;;;19.47;67.45;100634.47;6149446;23;45320;-89
2021/07/26 01:31:10;;;;;;;;;0.00;0.00;;;;;19.49;67.24;100638.81;6149952;23;45333;-90
2021/07/26 01:33:37;;;;;;;;;0.00;0.00;;;;;19.33;67.52;100624.34;6149285;23;45663;-89
2021/07/26 01:36:03;;;;;;;;;0.50;0.00;;;;;19.40;67.57;100639.09;6149493;23;45229;-90
2021/07/26 01:38:29;;;;;;;;;1.00;1.00;;;;;19.40;67.33;100654.03;6149652;23;45248;-89
2021/07/26 01:40:57;;;;;;;;;0.00;0.00;;;;;19.27;67.13;100640.34;6150452;23;45446;-90
2021/07/26 01:43:31;;;;;;;;;0.00;0.00;;;;;19.33;67.00;100654.22;6149552;23;46866;-88
2021/07/26 01:46:19;;;;;;;;;0.00;0.00;;;;;19.21;67.17;100641.41;6149525;23;45265;-90
2021/07/26 01:48:49;;;;;;;;;0.50;0.50;;;;;19.29;67.17;100654.38;6037222;23;45258;-88
2021/07/26 01:51:18;;;;;;;;;0.00;0.00;;;;;19.01;67.31;100619.06;6060014;23;45424;-87
2021/07/26 01:53:44;;;;;;;;;0.50;0.00;;;;;19.19;66.98;100657.28;6035354;23;47174;-89
2021/07/26 01:56:10;;;;;;;;;0.00;0.00;;;;;18.98;67.44;100658.72;6058908;23;45558;-89
2021/07/26 01:58:36;;;;;;;;;0.00;0.00;;;;;19.06;67.16;100669.94;6035259;23;45348;-89
2021/07/26 02:01:02;;;;;;;;;1.25;0.00;;;;;18.98;67.02;100672.78;6061363;23;45348;-89
2021/07/26 02:03:29;;;;;;;;;0.25;0.25;;;;;18.83;67.36;100631.84;6061056;23;45203;-89
2021/07/26 02:05:54;;;;;;;;;0.25;0.00;;;;;18.92;67.33;100659.75;6059873;23;45409;-89
2021/07/26 02:08:20;;;;;;;;;0.50;0.50;;;;;18.81;67.73;100667.94;6059640;23;45401;-89
2021/07/26 02:10:45;;;;;;;;;0.00;0.00;;;;;18.94;68.00;100679.03;6059584;23;45332;-88
2021/07/26 02:13:10;;;;;;;;;0.00;0.00;;;;;18.87;67.23;100672.22;6060642;23;50748;-87
2021/07/26 02:15:35;;;;;;;;;0.00;0.00;;;;;18.72;67.89;100655.03;6061341;23;45861;-89
2021/07/26 02:18:01;;;;;;;;;0.00;0.00;;;;;18.70;67.94;100657.69;6060445;23;45378;-87
2021/07/26 02:20:26;;;;;;;;;0.00;0.00;;;;;18.68;67.97;100656.03;6061415;23;51083;-86
2021/07/26 02:22:51;;;;;;;;;0.00;0.00;;;;;18.72;68.24;100676.13;6060442;23;45411;-87
2021/07/26 02:25:17;;;;;;;;;2.00;0.00;;;;;18.72;67.97;100673.47;6082961;23;45250;-88
2021/07/26 02:27:44;;;;;;;;;0.75;0.75;;;;;18.84;67.79;100682.84;6147432;23;45484;-88
2021/07/26 02:30:10;;;;;;;;;0.00;0.00;;;;;18.87;67.82;100685.41;6150401;23;45283;-88
2021/07/26 02:32:35;;;;;;;;;0.50;0.50;;;;;18.55;68.40;100651.06;6149323;23;47190;-88
2021/07/26 02:35:00;;;;;;;;;0.00;0.00;;;;;18.58;67.80;100655.38;6149134;23;47998;-88
2021/07/26 02:37:26;;;;;;;;;0.00;0.00;;;;;18.72;68.42;100684.88;6148600;23;45552;-88
2021/07/26 02:39:51;;;;;;;;;0.50;0.50;;;;;18.75;68.47;100694.50;6150931;23;45275;-88
2021/07/26 02:42:16;;;;;;;;;0.00;0.00;;;;;18.73;68.20;100686.63;6147746;23;61005;-88
2021/07/26 02:44:42;;;;;;;;;0.00;0.00;;;;;18.79;68.32;100697.91;6148349;23;45335;-88
2021/07/26 02:47:07;;;;;;;;;0.00;0.00;;;;;18.83;68.17;100697.78;6146751;23;45389;-88
2021/07/26 02:49:32;;;;;;;;;0.50;0.00;;;;;18.74;68.04;100682.19;6149576;23;45281;-87
2021/07/26 02:51:58;;;;;;;;;0.00;0.00;;;;;18.74;68.29;100684.84;6148522;23;45785;-88
2021/07/26 02:54:23;;;;;;;;;0.00;0.00;;;;;18.63;68.05;100677.22;6148705;23;45230;-88
2021/07/26 02:56:48;;;;;;;;;0.00;0.00;;;;;18.71;68.64;100701.59;6148228;23;45371;-87
2021/07/26 02:59:14;;;;;;;;;0.00;0.00;;;;;18.68;68.42;100691.13;6148316;23;47134;-87
2021/07/26 03:01:39;;;;;;;;;0.00;0.00;;;;;18.67;68.11;100692.06;6148528;23;45538;-88
2021/07/26 03:04:04;;;;;;;;;0.00;0.00;;;;;18.62;68.61;100683.38;6148543;23;45542;-87
2021/07/26 03:06:30;;;;;;;;;0.00;0.00;;;;;18.59;68.43;100676.44;6149147;23;45342;-86
2021/07/26 03:08:55;;;;;;;;;0.25;0.00;;;;;18.56;68.07;100679.13;6148757;23;45344;-87
2021/07/26 03:11:21;;;;;;;;;0.00;0.00;;;;;18.51;67.92;100674.91;6147872;23;57714;-86
2021/07/26 03:13:46;;;;;;;;;0.25;0.25;;;;;18.61;68.38;100692.22;6147752;23;56153;-88
2021/07/26 03:16:14;;;;;;;;;0.00;0.00;;;;;18.55;67.91;100679.19;6148582;23;45328;-88
2021/07/26 03:18:40;;;;;;;;;0.00;0.00;;;;;18.61;68.49;100689.56;6146818;23;45444;-87
2021/07/26 03:21:05;;;;;;;;;2.25;1.00;;;;;18.62;68.61;100686.03;6148367;23;45188;-88
2021/07/26 03:23:31;;;;;;;;;0.25;0.25;;;;;18.68;68.30;100688.50;6148669;23;45242;-88
2021/07/26 03:25:57;;;;;;;;;1.00;0.00;;;;;18.70;68.66;100696.38;6148594;23;45220;-88
2021/07/26 03:28:23;;;;;;;;;0.00;0.00;;;;;18.71;68.21;100693.69;6150296;23;45301;-88
2021/07/26 03:30:48;;;;;;;;;0.25;0.25;;;;;18.66;68.72;100690.34;6150613;23;46114;-87
2021/07/26 03:33:14;;;;;;;;;0.00;0.00;;;;;18.69;68.29;100692.00;6149869;23;45395;-87
2021/07/26 03:35:39;;;;;;;;;0.00;0.00;;;;;18.73;68.47;100697.19;6149982;23;46514;-87
2021/07/26 03:38:05;;;;;;;;;0.00;0.00;;;;;18.56;68.30;100662.47;6150183;23;45205;-88
2021/07/26 03:40:34;;;;;;;;;0.00;0.00;;;;;18.82;68.15;100692.56;6150165;23;45307;-87
2021/07/26 03:43:01;;;;;;;;;0.00;0.00;;;;;18.85;68.16;100689.84;6149802;23;45399;-87
2021/07/26 03:45:27;;;;;;;;;0.75;0.00;;;;;18.89;68.25;100688.84;6150020;23;45402;-88
2021/07/26 03:47:55;;;;;;;;;0.00;0.00;;;;;18.99;68.03;100700.03;6150204;23;45355;-88
2021/07/26 03:50:21;;;;;;;;;0.00;0.00;;;;;18.91;68.05;100687.03;6148077;23;46463;-88
2021/07/26 03:52:51;;;;;;;;;0.00;0.00;;;;;19.06;67.57;100701.59;6151039;23;50457;-89
2021/07/26 03:55:20;;;;;;;;;1.00;1.00;;;;;19.01;67.88;100706.09;6150775;23;45277;-88
2021/07/26 03:57:49;;;;;;;;;0.00;0.00;;;;;18.95;67.57;100695.72;6150306;23;45320;-88
2021/07/26 04:00:16;;;;;;;;;0.00;0.00;;;;;18.99;68.16;100707.94;6149944;23;46193;-88
2021/07/26 04:02:43;;;;;;;;;0.00;0.00;;;;;18.85;67.64;100674.88;6149720;23;45213;-87
2021/07/26 04:05:16;;;;;;;;;0.50;0.50;;;;;18.81;67.54;100667.94;6150007;23;45270;-88
2021/07/26 04:07:45;;;;;;;;;0.00;0.00;;;;;18.92;67.61;100701.94;6150645;23;45336;-88
2021/07/26 04:10:11;;;;;;;;;0.00;0.00;;;;;18.98;67.52;100701.78;6150129;23;45342;-88
2021/07/26 04:12:37;;;;;;;;;0.25;0.25;;;;;18.97;67.80;100707.97;6150243;23;45311;-83
2021/07/26 04:15:08;;;;;;;;;1.00;1.00;;;;;18.84;67.70;100694.22;6150606;23;45495;-88
2021/07/26 04:17:35;;;;;;;;;0.50;0.50;;;;;18.87;67.92;100701.22;6150184;23;45368;-88
2021/07/26 04:20:01;;;;;;;;;0.25;0.00;;;;;18.90;67.84;100708.19;6150485;23;45322;-88
2021/07/26 04:22:27;;;;;;;;;0.00;0.00;;;;;18.94;67.84;100702.78;6150330;23;45311;-88
2021/07/26 04:24:52;;;;;;;;;1.00;0.00;;;;;18.82;67.88;100688.16;6150102;23;45211;-87
2021/07/26 04:27:17;;;;;;;;;2.00;0.75;;;;;18.98;67.78;100714.97;6151188;23;45299;-88
2021/07/26 04:29:42;;;;;;;;;0.50;0.00;;;;;18.84;67.45;100688.97;6149717;23;56373;-87
2021/07/26 04:32:10;;;;;;;;;0.00;0.00;;;;;18.61;67.75;100661.44;6148427;23;45485;-88
2021/07/26 04:34:36;;;;;;;;;0.00;0.00;;;;;18.95;68.07;100716.81;6150628;22;45329;-87
2021/07/26 04:37:02;;;;;;;;;0.25;0.25;;;;;18.84;67.88;100698.66;6150279;23;45511;-87
2021/07/26 04:39:27;;;;;;;;;1.00;0.00;;;;;18.77;67.85;100668.94;6150275;23;46134;-88
2021/07/26 04:41:52;;;;;;;;;0.00;0.00;;;;;19.02;67.75;100704.34;6151774;23;45205;-87
2021/07/26 04:44:18;;;;;;;;;0.00;0.00;;;;;19.11;67.52;100712.00;6151232;23;45168;-88
2021/07/26 04:46:43;;;;;;;;;0.00;0.00;;;;;19.17;67.33;100711.00;6151033;23;45074;-88
2021/07/26 04:49:08;;;;;;;;;0.50;0.00;;;;;19.07;67.61;100705.06;6148742;23;59637;-87
2021/07/26 04:51:33;;;;;;;;;0.00;0.00;;;;;19.04;67.68;100706.03;6149331;23;45337;-87
2021/07/26 04:53:59;;;;;;;;;0.00;0.00;;;;;19.02;67.80;100723.66;6149442;23;45361;-86
2021/07/26 04:56:24;;;;;;;;;0.00;0.00;;;;;18.96;67.42;100727.31;6149397;23;45370;-87
2021/07/26 04:58:49;;;;;;;;;0.00;0.00;;;;;18.95;67.89;100724.72;6149413;23;46072;-88
2021/07/26 05:01:15;;;;;;;;;2.00;0.00;;;;;18.86;68.16;100712.66;6148666;23;45411;-88
2021/07/26 05:03:40;;;;;;;;;0.00;0.00;;;;;19.06;67.85;100733.25;6149414;23;45442;-87
2021/07/26 05:06:06;;;;;;;;;0.00;0.00;;;;;19.06;67.92;100732.38;6150379;23;45416;-85
2021/07/26 05:08:32;;;;;;;;;0.00;0.00;;;;;19.08;67.89;100730.59;6149560;23;45938;-87
2021/07/26 05:10:57;;;;;;;;;0.00;0.00;;;;;19.18;67.77;100733.84;6150427;23;45329;-86
2021/07/26 05:13:23;;;;;;;;;0.00;0.00;;;;;19.24;67.16;100736.31;6150948;23;45263;-87
2021/07/26 05:15:48;;;;;;;;;0.00;0.00;;;;;19.26;67.47;100736.28;6151984;23;45354;-87
2021/07/26 05:18:13;;;;;;;;;0.00;0.00;;;;;19.27;67.36;100727.44;6151662;23;45230;-87
2021/07/26 05:20:39;;;;;;;;;0.25;0.25;;;;;19.23;67.47;100722.25;6151000;23;45283;-86
2021/07/26 05:23:09;;;;;;;;;0.00;0.00;;;;;19.38;67.32;100741.19;6153554;23;45226;-86
2021/07/26 05:25:35;;;;;;;;;0.00;0.00;;;;;19.41;66.86;100743.75;6153629;23;45457;-87
2021/07/26 05:28:00;;;;;;;;;0.75;0.75;;;;;19.32;67.01;100717.59;6152042;23;46490;-87
2021/07/26 05:30:25;;;;;;;;;0.00;0.00;;;;;19.50;67.10;100743.50;6150001;23;45323;-88
2021/07/26 05:32:53;;;;;;;;;0.00;0.00;;;;;19.48;66.73;100737.38;6149940;23;45280;-88
2021/07/26 05:35:18;;;;;;;;;0.00;0.00;;;;;19.45;66.61;100733.97;6150516;23;45475;-88
2021/07/26 05:37:44;;;;;;;;;0.00;0.00;;;;;19.42;66.75;100748.09;6150257;23;45228;-87
2021/07/26 05:40:09;;;;;;;;;1.00;0.50;;;;;19.42;67.00;100748.09;6147074;23;45368;-89
2021/07/26 05:42:35;;;;;;;;;0.00;0.00;;;;;19.42;67.08;100740.19;6148828;23;45349;-89
2021/07/26 05:45:03;;;;;;;;;1.00;1.00;;;;;19.43;66.94;100744.56;6147438;22;45480;-88
2021/07/26 05:47:29;;;;;;;;;0.00;0.00;;;;;19.31;67.22;100727.31;6148202;23;45300;-88
2021/07/26 05:49:54;;;;;;;;;1.00;0.00;;;;;19.44;67.26;100743.66;6149156;23;45296;-88
2021/07/26 05:52:19;;;;;;;;;0.00;0.00;;;;;19.44;67.27;100741.00;6145291;23;53506;-88
2021/07/26 05:54:45;;;;;;;;;0.00;0.00;;;;;19.48;67.04;100729.44;6148726;23;45274;-88
2021/07/26 05:57:12;;;;;;;;;0.00;0.00;;;;;19.62;66.66;100733.47;6148033;23;46056;-87
2021/07/26 05:59:38;;;;;;;;;0.00;0.00;;;;;19.44;66.78;100700.53;6148176;23;45252;-88
2021/07/26 06:02:03;;;;;;;;;0.00;0.00;;;;;19.55;66.35;100726.66;6147910;23;45433;-86
2021/07/26 06:04:29;;;;;;;;;0.00;0.00;;;;;19.47;66.55;100717.19;6148276;23;45311;-86
2021/07/26 06:06:55;;;;;;;;;0.00;0.00;;;;;19.59;66.81;100747.63;6147254;23;45614;-86
2021/07/26 06:09:21;;;;;;;;;0.00;0.00;;;;;19.49;66.80;100733.84;6147489;23;45505;-85
2021/07/26 06:11:49;;;;;;;;;1.00;0.00;;;;;19.58;66.71;100742.41;6147217;23;45372;-85
2021/07/26 06:14:15;;;;;;;;;0.00;0.00;;;;;19.61;66.77;100747.59;6146994;23;45478;-85
2021/07/26 06:16:48;;;;;;;;;0.00;0.00;;;;;19.68;66.59;100750.91;6147330;23;45726;-86
2021/07/26 06:19:15;;;;;;;;;0.50;0.00;;;;;19.77;66.67;100753.28;6147492;23;45265;-85
2021/07/26 06:21:55;;;;;;;;;0.00;0.00;;;;;19.72;66.96;100736.69;6143707;23;45297;-86
2021/07/26 06:24:21;;;;;;;;;0.00;0.00;;;;;19.85;66.07;100748.63;6147881;23;45445;-86
2021/07/26 06:26:47;;;;;;;;;0.00;0.00;;;;;19.68;66.44;100737.69;6146505;23;45400;-86
2021/07/26 06:29:13;;;;;;;;;0.00;0.00;;;;;19.61;66.33;100759.00;6147605;23;45282;-86
2021/07/26 06:31:40;;;;;;;;;0.00;0.00;;;;;19.53;66.70;100755.72;6146803;23;45547;-87
2021/07/26 06:34:06;;;;;;;;;0.00;0.00;;;;;19.48;66.83;100763.78;6149721;23;45295;-92
2021/07/26 06:36:31;;;;;;;;;0.00;0.00;;;;;19.49;66.76;100754.97;6154455;23;45397;-89
2021/07/26 06:38:57;;;;;;;;;3.00;1.00;;;;;19.47;66.72;100755.91;6151816;23;45399;-87
2021/07/26 06:41:23;;;;;;;;;0.00;0.00;;;;;19.39;66.98;100752.63;6149068;23;45335;-86
2021/07/26 06:43:52;;;;;;;;;0.50;0.50;;;;;19.31;67.13;100744.91;6148784;23;45356;-87
2021/07/26 06:46:18;;;;;;;;;0.50;0.50;;;;;19.43;67.20;100763.06;6148317;23;46233;-86
2021/07/26 06:48:43;;;;;;;;;0.00;0.00;;;;;19.44;67.14;100761.25;6154266;23;45221;-86
2021/07/26 06:51:09;;;;;;;;;0.00;0.00;;;;;19.50;67.26;100764.59;6154677;23;46198;-87
2021/07/26 06:53:34;;;;;;;;;0.00;0.00;;;;;19.43;67.01;100744.56;6157946;23;44830;-86
2021/07/26 06:56:07;;;;;;;;;0.00;0.00;;;;;19.49;66.96;100765.53;6158469;23;45312;-86
2021/07/26 06:58:34;;;;;;;;;0.00;0.00;;;;;19.39;67.01;100731.50;6149017;23;45400;-89
2021/07/26 07:01:04;;;;;;;;;0.00;0.00;;;;;19.31;66.77;100718.50;6151539;23;45275;-83
2021/07/26 07:03:29;;;;;;;;;0.00;0.00;;;;;19.68;66.84;100764.97;6151216;23;45382;-90
2021/07/26 07:06:09;;;;;;;;;0.00;0.00;;;;;19.36;66.78;100721.91;6156931;23;46059;-95
2021/07/26 07:08:36;;;;;;;;;0.25;0.25;;;;;19.61;67.10;100774.84;6157384;23;45288;-95
2021/07/26 07:11:06;;;;;;;;;0.00;0.00;;;;;19.44;67.33;100748.94;6157947;23;45300;-95
2021/07/26 07:13:32;;;;;;;;;0.00;0.00;;;;;19.38;67.42;100746.47;6151175;23;45473;-89
2021/07/26 07:15:58;;;;;;;;;1.00;1.00;;;;;19.56;67.61;100781.16;6151490;23;46039;-92
2021/07/26 07:18:23;;;;;;;;;1.00;1.00;;;;;19.17;67.87;100727.69;6150801;23;45286;-89
2021/07/26 07:20:49;;;;;;;;;0.00;0.00;;;;;19.29;67.91;100752.88;6151796;23;45284;-90
2021/07/26 07:23:15;;;;;;;;;0.00;0.00;;;;;19.09;68.15;100734.94;6152855;23;45298;-92
2021/07/26 07:25:40;;;;;;;;;0.00;0.00;;;;;19.47;68.38;100792.84;6151817;23;45826;-88
2021/07/26 07:28:05;;;;;;;;;0.00;0.00;;;;;19.29;68.65;100766.06;6151985;23;45354;-91
2021/07/26 07:30:30;;;;;;;;;0.00;0.00;;;;;19.34;68.92;100789.69;6151041;23;45280;-83
2021/07/26 07:33:00;;;;;;;;;0.00;0.00;;;;;19.22;69.12;100797.03;6152151;23;45279;-90
2021/07/26 07:35:25;;;;;;;;;0.00;0.00;;;;;19.16;69.25;100791.03;6151748;23;46479;-90
2021/07/26 07:37:53;;;;;;;;;1.00;1.00;;;;;19.10;69.12;100789.44;6151432;23;45166;-92
2021/07/26 07:40:19;;;;;;;;;1.25;0.00;;;;;19.01;70.31;100782.59;6143504;23;45406;-88
2021/07/26 07:42:44;;;;;;;;;0.00;0.00;;;;;19.04;70.24;100801.00;6153257;23;45295;-92
2021/07/26 07:45:11;;;;;;;;;0.00;0.00;;;;;18.90;70.77;100787.28;6152710;23;46214;-91
2021/07/26 07:47:37;;;;;;;;;0.00;0.00;;;;;18.52;70.83;100727.56;6150643;23;45442;-84
2021/07/26 07:50:04;;;;;;;;;0.25;0.25;;;;;19.05;70.82;100804.50;6147151;23;45543;-83
2021/07/26 07:52:30;;;;;;;;;0.00;0.00;;;;;18.99;71.39;100785.28;6148579;23;45404;-81
2021/07/26 07:54:55;;;;;;;;;0.00;0.00;;;;;19.22;71.05;100810.22;6145388;23;46337;-82
2021/07/26 07:57:21;;;;;;;;;0.00;0.00;;;;;19.15;70.90;100770.84;6147280;23;45880;-81
2021/07/26 07:59:47;;;;;;;;;0.00;0.00;;;;;19.39;70.47;100808.94;6148171;23;45284;-82
2021/07/26 08:02:13;;;;;;;;;0.75;0.00;;;;;19.46;70.40;100810.47;6148757;23;45336;-82
2021/07/26 08:04:40;;;;;;;;;2.25;0.00;;;;;19.54;70.12;100798.84;6147175;23;46105;-86
2021/07/26 08:07:05;;;;;;;;;0.00;0.00;;;;;19.65;69.76;100807.31;6147902;23;45352;-85
2021/07/26 08:09:31;;;;;;;;;0.00;0.00;;;;;19.71;69.72;100811.56;6145961;23;45566;-85
2021/07/26 08:11:57;;;;;;;;;0.50;0.00;;;;;19.57;69.43;100791.69;6146178;23;45439;-82
2021/07/26 08:14:22;;;;;;;;;1.00;1.00;;;;;19.67;69.23;100794.06;6147680;23;46074;-84
2021/07/26 08:16:47;;;;;;;;;0.25;0.25;;;;;19.74;68.84;100772.72;6149255;23;45386;-81
2021/07/26 08:19:12;;;;;;;;;0.00;0.00;;;;;19.94;68.44;100771.25;6146882;23;45442;-84
2021/07/26 08:21:38;;;;;;;;;1.00;0.00;;;;;20.33;68.18;100809.75;6146681;23;45336;-85
2021/07/26 08:24:04;;;;;;;;;2.00;0.50;;;;;20.58;67.72;100816.91;6147733;23;45537;-85
2021/07/26 08:26:30;;;;;;;;;0.00;0.00;;;;;20.78;66.51;100810.09;6146501;22;45271;-83
2021/07/26 08:28:55;;;;;;;;;2.75;2.00;;;;;20.91;65.64;100783.28;6145410;23;45258;-84
2021/07/26 08:31:21;;;;;;;;;1.75;0.00;;;;;20.96;65.94;100808.66;6153054;23;45229;-93
2021/07/26 08:33:46;;;;;;;;;1.00;1.00;;;;;20.87;65.66;100819.50;6150731;23;54868;-87
2021/07/26 08:36:11;;;;;;;;;0.00;0.00;;;;;20.41;66.02;100772.50;6146954;23;45223;-84
2021/07/26 08:38:37;;;;;;;;;1.00;1.00;;;;;20.55;65.92;100818.78;6146809;23;45316;-81
2021/07/26 08:41:02;;;;;;;;;0.25;0.00;;;;;20.37;66.14;100805.25;6148891;23;45245;-83
2021/07/26 08:43:28;;;;;;;;;0.00;0.00;;;;;20.41;65.84;100825.38;6149211;23;46306;-81
2021/07/26 08:45:54;;;;;;;;;0.00;0.00;;;;;20.34;66.27;100821.19;6144766;23;45456;-79
2021/07/26 08:48:24;;;;;;;;;1.00;0.00;;;;;20.27;66.08;100786.16;6148053;23;45455;-79
2021/07/26 08:50:49;;;;;;;;;0.00;0.00;;;;;19.97;65.88;100733.34;6141495;23;45273;-84
2021/07/26 08:53:20;;;;;;;;;1.00;1.00;;;;;20.43;65.91;100791.81;6140761;23;48406;-79
2021/07/26 08:55:48;;;;;;;;;0.00;0.00;;;;;20.56;65.09;100794.06;6147033;23;45352;-85
2021/07/26 08:58:15;;;;;;;;;0.75;0.00;;;;;20.90;65.19;100824.72;6160653;23;45330;-83
2021/07/26 09:00:41;;;;;;;;;0.00;0.00;;;;;20.82;64.79;100810.88;6154172;23;45332;-85
2021/07/26 09:03:07;;;;;;;;;0.00;0.00;;;;;20.89;64.45;100812.41;6152677;23;45297;-86
2021/07/26 09:05:32;;;;;;;;;0.00;0.00;;;;;21.00;64.33;100831.44;6151597;23;45567;-83
2021/07/26 09:08:00;;;;;;;;;3.50;0.00;;;;;20.93;64.15;100799.94;6145800;23;45297;-92
2021/07/26 09:10:26;;;;;;;;;0.00;0.00;;;;;20.96;63.92;100808.66;6154778;23;45644;-90
2021/07/26 09:12:53;;;;;;;;;1.00;1.00;;;;;20.92;64.30;100792.94;6153287;23;45351;-92
2021/07/26 09:15:28;;;;;;;;;0.50;0.50;;;;;21.12;64.44;100834.59;6148873;23;45362;-88
2021/07/26 09:17:56;;;;;;;;;0.00;0.00;;;;;20.97;64.23;100814.78;6150876;23;45236;-90
2021/07/26 09:20:28;;;;;;;;;0.00;0.00;;;;;20.13;63.78;100681.75;6153056;23;45253;-91
2021/07/26 09:22:56;;;;;;;;;0.00;0.00;;;;;21.15;64.20;100839.78;6150529;23;46996;-92
2021/07/26 09:25:21;;;;;;;;;0.00;0.00;;;;;21.13;64.08;100845.13;6146324;23;45652;-90
2021/07/26 09:27:57;;;;;;;;;0.00;0.00;;;;;21.02;63.76;100856.06;6145541;23;45318;-85
2021/07/26 09:30:23;;;;;;;;;0.00;0.00;;;;;20.94;64.82;100849.28;6146629;22;45304;-85
2021/07/26 09:32:49;;;;;;;;;0.00;0.00;;;;;20.54;65.81;100809.09;6145674;23;47304;-87
2021/07/26 09:35:15;;;;;;;;;0.25;0.25;;;;;20.53;66.79;100839.13;6150778;23;45298;-91
2021/07/26 09:37:41;;;;;;;;;2.00;0.00;;;;;20.45;67.29;100850.81;6151330;23;45134;-85
2021/07/26 09:40:21;;;;;;;;;0.75;0.75;;;;;20.24;67.92;100842.63;6146877;23;45704;-85
2021/07/26 09:42:46;;;;;;;;;1.00;1.00;;;;;20.13;69.04;100832.34;6146083;23;47488;-85
2021/07/26 09:45:25;;;;;;;;;0.00;0.00;;;;;20.12;69.11;100849.13;6152196;23;45340;-89
2021/07/26 09:48:04;;;;;;;;;0.00;0.00;;;;;20.27;69.00;100854.03;6157993;23;45370;-90
2021/07/26 09:50:49;;;;;;;;;1.00;0.00;;;;;20.19;68.70;100830.47;6157772;23;44743;-81
2021/07/26 09:53:24;;;;;;;;;1.00;0.00;;;;;20.27;68.75;100841.66;6147143;23;47388;-84
2021/07/26 09:55:52;;;;;;;;;1.00;0.00;;;;;20.62;68.40;100852.06;6146175;23;45234;-87
2021/07/26 09:58:20;;;;;;;;;0.00;0.00;;;;;20.72;68.38;100840.28;6145491;23;45281;-86
2021/07/26 10:00:46;;;;;;;;;0.00;0.00;;;;;20.92;68.22;100843.19;6147446;23;45332;-92
2021/07/26 10:03:15;;;;;;;;;0.00;0.00;;;;;21.20;67.99;100848.44;6147506;23;45321;-89
2021/07/26 10:05:43;;;;;;;;;1.00;1.00;;;;;21.30;67.46;100850.75;6250133;22;46075;-83
2021/07/26 10:08:09;;;;;;;;;2.00;0.75;;;;;21.42;67.23;100855.63;6146767;23;45338;-80
2021/07/26 10:10:39;;;;;;;;;1.50;0.00;;;;;21.27;66.53;100855.25;6146801;23;45314;-83
2021/07/26 10:13:07;;;;;;;;;1.00;1.00;;;;;20.97;66.83;100850.06;6146424;23;46112;-85
2021/07/26 10:15:33;;;;;;;;;1.00;1.00;;;;;20.93;67.08;100851.09;6148683;23;45292;-88
2021/07/26 10:17:59;;;;;;;;;2.25;0.25;;;;;20.90;67.37;100853.84;6147922;23;45359;-85
2021/07/26 10:20:55;;;;;;;;;5.00;0.25;;;;;21.08;67.44;100862.06;6147108;23;45263;-85
2021/07/26 10:23:32;;;;;;;;;1.75;1.00;;;;;20.98;66.54;100840.38;6132526;23;45344;-89
2021/07/26 10:26:05;;;;;;;;;0.00;0.00;;;;;21.28;66.85;100850.78;6146243;23;45340;-88
2021/07/26 10:28:35;;;;;;;;;0.00;0.00;;;;;21.45;66.65;100852.88;6146894;23;45307;-87
2021/07/26 10:31:23;;;;;;;;;0.00;0.00;;;;;21.52;65.82;100853.50;6149617;23;45163;-90
2021/07/26 10:34:21;;;;;;;;;0.75;0.00;;;;;21.54;65.94;100851.69;6131371;23;46592;-86
2021/07/26 10:36:48;;;;;;;;;0.25;0.00;;;;;21.50;66.06;100850.91;6149940;23;45313;-88
2021/07/26 10:39:18;;;;;;;;;1.25;0.00;;;;;21.45;65.55;100849.34;6149828;23;45287;-89
2021/07/26 10:41:43;;;;;;;;;1.00;1.00;;;;;21.35;65.75;100854.13;6173105;23;45401;-85
2021/07/26 10:44:18;;;;;;;;;0.00;0.00;;;;;21.23;65.98;100848.31;6148905;23;45560;-82
2021/07/26 10:47:04;;;;;;;;;0.00;0.00;;;;;21.13;65.89;100846.88;6149501;23;45262;-87
2021/07/26 10:49:47;;;;;;;;;1.00;0.00;;;;;21.25;66.21;100851.78;6145846;23;45462;-84
2021/07/26 10:52:21;;;;;;;;;0.00;0.00;;;;;21.45;66.14;100852.00;6149789;23;45294;-86
2021/07/26 10:54:48;;;;;;;;;0.75;0.75;;;;;21.75;65.52;100849.19;6148775;23;45322;-88
2021/07/26 10:57:14;;;;;;;;;0.75;0.00;;;;;21.87;64.63;100853.19;6147134;23;45266;-84
2021/07/26 11:00:08;;;;;;;;;1.00;1.00;;;;;21.83;63.87;100854.19;6148736;23;45275;-83
2021/07/26 11:02:35;;;;;;;;;0.00;0.00;;;;;21.68;63.95;100851.16;6139838;23;45276;-85
2021/07/26 11:05:25;;;;;;;;;0.00;0.00;;;;;21.60;64.94;100846.16;6172551;23;47445;-86
2021/07/26 11:08:13;;;;;;;;;0.50;0.00;;;;;21.56;64.39;100854.28;6153690;23;45376;-85
2021/07/26 11:10:48;;;;;;;;;0.75;0.00;;;;;21.56;65.00;100854.28;6160611;23;45231;-87
2021/07/26 11:13:15;;;;;;;;;0.00;0.00;;;;;21.46;64.25;100848.41;6157839;23;45330;-89
2021/07/26 11:15:44;;;;;;;;;0.00;0.00;;;;;21.04;64.96;100800.44;6151391;23;45369;-86
2021/07/26 11:18:37;;;;;;;;;0.00;0.00;;;;;21.45;65.07;100846.69;6146712;23;45356;-81
2021/07/26 11:21:04;;;;;;;;;2.00;0.00;;;;;21.39;64.19;100800.13;6147215;23;45333;-81
2021/07/26 11:23:43;;;;;;;;;0.00;0.00;;;;;21.84;64.73;100840.06;6148222;23;45292;-84
2021/07/26 11:26:19;;;;;;;;;0.25;0.25;;;;;21.80;64.22;100854.34;6143409;23;47442;-83